Time;durP1;ratioP1;P1;durP2;ratioP2;P2;SDS_P1;SDS_P2;PMS_P1;PMS_P2;Temp;Humidity;BMP_temperature;BMP_pressure;BME280_temperature;BME280_humidity;BME280_pressure;Samples;Min_cycle;Max_cycle;Signal;HPM_P1;HPM_P2
2023/09/09 00:01:44;;;;;;;12.73;8.57;;;;;;;22.32;87.38;98780.09;4977113;28;20062;-66
2023/09/09 00:04:12;;;;;;;10.18;7.88;;;;;;;22.21;88.82;98776.28;4978896;28;20109;-65
2023/09/09 00:06:37;;;;;;;12.07;8.43;;;;;;;22.40;88.02;98778.00;4975098;28;20066;-66
2023/09/09 00:09:06;;;;;;;9.55;7.95;;;;;;;22.20;89.42;98777.34;4980705;28;21200;-65
2023/09/09 00:11:32;;;;;;;11.53;8.50;;;;;;;21.97;90.87;98773.41;5000862;28;20034;-65
2023/09/09 00:13:58;;;;;;;11.65;8.65;;;;;;;22.15;90.31;98779.81;4988404;28;21188;-66
2023/09/09 00:16:23;;;;;;;10.55;7.93;;;;;;;21.94;91.00;98768.56;4973845;28;20081;-65
2023/09/09 00:18:55;;;;;;;11.25;8.48;;;;;;;21.98;90.83;98769.75;4973730;28;20026;-64
2023/09/09 00:21:21;;;;;;;10.23;8.45;;;;;;;22.12;90.94;98778.38;4985578;28;20031;-66
2023/09/09 00:23:46;;;;;;;11.90;9.02;;;;;;;22.05;90.92;98764.38;4975159;28;20038;-65
2023/09/09 00:26:11;;;;;;;10.13;8.63;;;;;;;22.03;91.03;98779.69;4974820;28;20033;-66
2023/09/09 00:28:37;;;;;;;13.98;8.32;;;;;;;21.78;91.75;98747.91;4961131;28;20031;-65
2023/09/09 00:31:02;;;;;;;11.02;8.63;;;;;;;22.21;90.53;98779.75;4974609;28;20092;-65
2023/09/09 00:33:30;;;;;;;10.32;8.25;;;;;;;22.07;91.27;98773.75;4988200;28;20026;-66
2023/09/09 00:36:01;;;;;;;10.45;8.35;;;;;;;22.10;91.17;98782.28;4973379;28;20143;-65
2023/09/09 00:38:27;;;;;;;10.60;8.23;;;;;;;22.05;91.42;98773.16;4970088;28;20034;-65
2023/09/09 00:41:18;;;;;;;11.05;8.50;;;;;;;22.05;90.97;98773.16;4987918;28;20023;-65
2023/09/09 00:43:45;;;;;;;9.90;8.35;;;;;;;22.20;90.47;98782.63;4971397;28;20103;-66
2023/09/09 00:46:11;;;;;;;10.52;7.85;;;;;;;22.22;90.16;98780.56;4985302;28;20034;-66
2023/09/09 00:48:37;;;;;;;9.77;8.57;;;;;;;22.20;90.30;98779.97;5001103;28;20029;-66
2023/09/09 00:51:04;;;;;;;11.32;8.48;;;;;;;22.10;90.33;98785.75;4956524;28;20181;-65
2023/09/09 00:53:30;;;;;;;9.57;8.57;;;;;;;22.08;90.96;98783.31;4959119;28;20085;-64
2023/09/09 00:55:56;;;;;;;10.27;8.27;;;;;;;21.90;91.66;98777.94;4959465;28;20034;-65
2023/09/09 00:58:24;;;;;;;9.50;8.27;;;;;;;21.81;91.63;98747.47;4990229;28;20037;-65
2023/09/09 01:00:55;;;;;;;10.40;8.07;;;;;;;21.77;92.55;98776.19;4976683;28;21306;-65
2023/09/09 01:03:22;;;;;;;9.63;8.25;;;;;;;22.01;91.97;98771.97;4975756;28;20031;-64
2023/09/09 01:05:49;;;;;;;10.90;8.82;;;;;;;21.97;91.94;98762.03;4971953;28;20034;-66
2023/09/09 01:08:27;;;;;;;11.35;8.32;;;;;;;21.95;91.48;98746.34;4969119;28;20065;-65
2023/09/09 01:10:53;;;;;;;10.02;8.15;;;;;;;21.96;91.84;98771.81;4984420;28;20035;-66
2023/09/09 01:13:19;;;;;;;11.60;8.30;;;;;;;22.16;91.36;98770.81;4972884;28;20031;-65
2023/09/09 01:15:45;;;;;;;10.43;8.05;;;;;;;22.14;91.22;98770.22;4986663;28;20076;-64
2023/09/09 01:18:10;;;;;;;10.15;8.15;;;;;;;21.97;91.04;98740.84;4985684;28;20074;-65
2023/09/09 01:20:39;;;;;;;10.02;7.97;;;;;;;21.99;91.55;98775.84;4961615;28;20791;-65
2023/09/09 01:23:04;;;;;;;12.60;8.75;;;;;;;21.69;92.93;98781.75;4972454;28;20032;-66
2023/09/09 01:25:30;;;;;;;10.63;8.73;;;;;;;21.72;93.48;98775.22;4960884;28;20042;-66
2023/09/09 01:27:57;;;;;;;10.07;8.52;;;;;;;21.74;92.85;98770.50;4973626;28;20030;-66
2023/09/09 01:30:25;;;;;;;10.25;8.38;;;;;;;21.63;93.04;98772.00;4961004;28;20392;-66
2023/09/09 01:32:50;;;;;;;10.75;8.48;;;;;;;21.68;93.26;98775.66;4972282;28;20042;-66
2023/09/09 01:35:16;;;;;;;11.60;9.07;;;;;;;21.63;93.39;98772.81;4988043;28;20031;-65
2023/09/09 01:37:41;;;;;;;10.20;8.68;;;;;;;21.59;93.64;98774.25;4969751;28;20573;-64
2023/09/09 01:40:12;;;;;;;12.07;8.95;;;;;;;21.45;94.32;98776.19;4971334;28;20039;-67
2023/09/09 01:42:38;;;;;;;12.15;8.27;;;;;;;21.48;94.28;98769.63;4976227;28;20144;-66
2023/09/09 01:45:04;;;;;;;12.48;8.32;;;;;;;21.55;94.25;98770.41;4983452;28;21192;-66
2023/09/09 01:47:29;;;;;;;11.10;8.65;;;;;;;21.46;94.66;98769.84;4972774;28;20061;-67
2023/09/09 01:49:57;;;;;;;10.70;8.38;;;;;;;21.52;94.22;98767.38;4970069;28;20149;-67
2023/09/09 01:52:22;;;;;;;10.00;8.38;;;;;;;21.39;95.12;98766.38;4972569;28;21567;-67
2023/09/09 01:54:48;;;;;;;11.10;9.00;;;;;;;21.29;95.90;98769.50;4966282;28;20565;-67
2023/09/09 01:57:16;;;;;;;13.05;8.80;;;;;;;21.30;95.88;98765.84;4967242;28;21230;-67
2023/09/09 01:59:44;;;;;;;12.02;8.45;;;;;;;21.37;95.38;98763.16;4970247;28;20509;-67
2023/09/09 02:02:10;;;;;;;10.45;8.20;;;;;;;21.12;96.06;98740.09;4971857;28;20142;-65
2023/09/09 02:04:37;;;;;;;12.73;8.77;;;;;;;21.39;95.43;98766.38;4960872;28;20041;-67
2023/09/09 02:07:03;;;;;;;11.07;8.70;;;;;;;21.01;96.46;98734.63;4956887;28;20056;-65
2023/09/09 02:09:31;;;;;;;9.98;8.45;;;;;;;21.35;96.02;98769.69;4952782;28;20397;-64
2023/09/09 02:11:56;;;;;;;10.38;8.50;;;;;;;21.34;96.19;98765.41;4955603;28;20030;-67
2023/09/09 02:14:21;;;;;;;10.23;8.18;;;;;;;21.16;96.28;98740.47;4970239;28;20041;-65
2023/09/09 02:16:49;;;;;;;11.50;8.63;;;;;;;21.39;95.63;98760.31;4965977;28;20248;-66
2023/09/09 02:19:15;;;;;;;11.15;8.75;;;;;;;21.27;95.96;98760.16;4969619;28;20037;-65
2023/09/09 02:21:40;;;;;;;12.27;8.65;;;;;;;21.10;96.56;98755.34;4970940;28;20030;-65
2023/09/09 02:24:07;;;;;;;12.60;8.77;;;;;;;20.95;96.34;98728.34;4982479;28;20441;-67
2023/09/09 02:26:33;;;;;;;10.43;9.30;;;;;;;21.31;95.85;98767.44;4969544;28;20577;-67
2023/09/09 02:28:58;;;;;;;10.35;8.85;;;;;;;21.15;96.17;98764.47;4994079;28;20026;-66
2023/09/09 02:31:24;;;;;;;11.52;8.70;;;;;;;21.28;95.63;98753.84;4966012;28;20210;-66
2023/09/09 02:33:49;;;;;;;18.75;8.65;;;;;;;21.07;95.71;98736.44;4968632;28;20101;-67
2023/09/09 02:36:14;;;;;;;10.68;8.68;;;;;;;21.05;96.28;98760.44;4969830;28;20157;-66
2023/09/09 02:38:42;;;;;;;11.88;8.95;;;;;;;21.19;95.76;98760.38;4964473;28;20031;-65
2023/09/09 02:41:08;;;;;;;10.80;8.65;;;;;;;21.15;96.30;98769.75;4982192;28;20041;-64
2023/09/09 02:43:33;;;;;;;10.48;9.10;;;;;;;21.23;96.26;98758.94;4968435;28;20023;-64
2023/09/09 02:45:58;;;;;;;10.00;8.77;;;;;;;21.19;96.15;98758.56;4957488;28;20375;-64
2023/09/09 02:48:24;;;;;;;9.63;8.40;;;;;;;21.20;96.23;98749.59;4964237;28;20844;-65
2023/09/09 02:50:49;;;;;;;9.98;8.68;;;;;;;21.03;96.86;98749.28;4971383;28;20061;-63
2023/09/09 02:53:17;;;;;;;10.43;8.63;;;;;;;21.00;97.47;98757.63;4976745;28;20638;-65
2023/09/09 02:55:42;;;;;;;11.27;9.40;;;;;;;20.90;97.78;98750.13;4975735;28;20057;-65
2023/09/09 02:58:10;;;;;;;11.05;8.70;;;;;;;20.72;97.54;98713.00;4992662;28;20026;-64
2023/09/09 03:00:38;;;;;;;10.82;9.13;;;;;;;20.72;98.25;98732.28;4961749;28;20034;-64
2023/09/09 03:03:06;;;;;;;10.40;8.90;;;;;;;20.76;98.18;98729.25;4972564;28;20030;-64
2023/09/09 03:05:36;;;;;;;11.67;8.97;;;;;;;21.02;97.52;98749.47;4970749;28;20041;-64
2023/09/09 03:08:03;;;;;;;11.93;9.07;;;;;;;20.86;98.15;98742.81;4972177;28;20165;-64
2023/09/09 03:10:28;;;;;;;9.98;8.75;;;;;;;20.93;98.05;98741.75;4990977;28;20026;-65
2023/09/09 03:12:57;;;;;;;12.65;8.85;;;;;;;21.02;96.97;98738.91;4975400;28;20397;-65
2023/09/09 03:15:27;;;;;;;10.87;8.57;;;;;;;20.94;96.66;98726.75;4981022;28;20029;-64
2023/09/09 03:17:52;;;;;;;11.23;9.02;;;;;;;20.96;97.55;98751.13;4976393;28;20042;-66
2023/09/09 03:20:20;;;;;;;10.88;8.68;;;;;;;20.98;97.40;98750.94;4972455;28;20034;-66
2023/09/09 03:22:46;;;;;;;11.85;8.65;;;;;;;20.67;98.46;98726.00;4972831;28;20023;-66
2023/09/09 03:25:11;;;;;;;11.55;9.40;;;;;;;20.81;98.47;98746.09;4970815;28;20037;-65
2023/09/09 03:27:38;;;;;;;11.02;9.00;;;;;;;20.81;98.06;98732.88;4971598;28;20473;-65
2023/09/09 03:30:04;;;;;;;10.55;8.63;;;;;;;20.89;98.54;98752.97;4972196;28;20034;-65
2023/09/09 03:32:30;;;;;;;12.45;8.80;;;;;;;20.69;99.68;98753.84;4977499;28;20473;-65
2023/09/09 03:34:58;;;;;;;11.25;8.88;;;;;;;20.80;99.29;98754.22;4973266;28;20049;-65
2023/09/09 03:37:25;;;;;;;9.98;8.93;;;;;;;20.72;99.59;98755.25;4989235;28;20115;-63
2023/09/09 03:39:53;;;;;;;10.40;8.75;;;;;;;20.73;99.76;98754.22;4979954;28;20084;-63
2023/09/09 03:42:21;;;;;;;10.77;9.18;;;;;;;20.65;99.73;98747.34;4976924;28;20467;-65
2023/09/09 03:44:46;;;;;;;11.63;8.65;;;;;;;20.80;99.18;98752.38;4972788;28;20030;-65
2023/09/09 03:47:12;;;;;;;10.88;9.07;;;;;;;20.81;98.95;98750.53;4976832;28;20572;-65
2023/09/09 03:49:37;;;;;;;11.00;9.00;;;;;;;20.78;98.62;98754.44;4962438;28;20800;-62
2023/09/09 03:52:05;;;;;;;10.80;8.88;;;;;;;20.71;99.01;98748.34;4957708;28;20694;-67
2023/09/09 03:54:33;;;;;;;11.25;8.43;;;;;;;20.71;99.07;98745.69;4976124;28;20034;-65
2023/09/09 03:57:01;;;;;;;10.55;8.45;;;;;;;20.87;98.17;98755.03;4969524;28;20126;-64
2023/09/09 03:59:29;;;;;;;10.25;8.90;;;;;;;20.79;98.44;98763.16;4971320;28;20180;-65
2023/09/09 04:01:54;;;;;;;11.27;8.40;;;;;;;20.59;98.27;98728.81;4995859;28;20026;-64
2023/09/09 04:04:20;;;;;;;11.48;8.93;;;;;;;20.76;98.18;98748.53;4960769;28;20401;-64
2023/09/09 04:06:45;;;;;;;11.25;8.70;;;;;;;20.63;98.80;98743.28;4973574;28;20062;-64
2023/09/09 04:09:15;;;;;;;10.45;8.48;;;;;;;20.72;98.03;98749.97;4960513;28;20039;-63
2023/09/09 04:11:40;;;;;;;11.32;8.65;;;;;;;20.60;98.50;98748.94;4975578;28;20027;-64
2023/09/09 04:14:05;;;;;;;10.35;8.27;;;;;;;20.66;98.42;98750.78;4978451;28;20038;-65
2023/09/09 04:16:31;;;;;;;11.88;8.88;;;;;;;20.46;99.31;98741.06;4990994;28;20026;-65
2023/09/09 04:18:59;;;;;;;10.50;8.82;;;;;;;20.38;98.80;98717.50;4982757;28;20030;-66
2023/09/09 04:21:24;;;;;;;11.63;8.20;;;;;;;20.76;98.15;98743.25;4973127;28;20037;-66
2023/09/09 04:23:49;;;;;;;10.27;8.65;;;;;;;20.71;98.20;98750.97;4976200;28;20031;-65
2023/09/09 04:26:17;;;;;;;11.68;8.93;;;;;;;20.76;97.47;98740.63;4974099;28;20036;-66
2023/09/09 04:28:42;;;;;;;10.30;8.60;;;;;;;20.70;97.74;98747.53;4969981;28;20117;-66
2023/09/09 04:31:08;;;;;;;10.68;8.57;;;;;;;20.72;97.63;98749.97;4970030;28;20116;-66
2023/09/09 04:33:33;;;;;;;13.40;8.05;;;;;;;20.80;97.00;98744.47;4970065;28;20901;-65
2023/09/09 04:35:59;;;;;;;11.55;8.23;;;;;;;20.54;97.38;98724.97;4973423;28;20034;-65
2023/09/09 04:38:24;;;;;;;10.52;8.20;;;;;;;20.61;97.54;98746.13;4960105;28;20026;-65
2023/09/09 04:40:52;;;;;;;11.23;8.27;;;;;;;20.54;98.07;98746.13;4988056;28;20031;-65
2023/09/09 04:43:18;;;;;;;10.80;8.40;;;;;;;20.65;97.55;98752.63;4973876;28;20085;-65
2023/09/09 04:45:43;;;;;;;12.25;8.70;;;;;;;20.58;96.88;98729.84;4969689;28;20034;-66
2023/09/09 04:48:10;;;;;;;13.60;8.93;;;;;;;20.49;97.53;98723.97;4988215;28;20030;-67
2023/09/09 04:50:35;;;;;;;10.27;8.35;;;;;;;20.71;97.09;98753.63;4994409;28;20030;-66
2023/09/09 04:53:02;;;;;;;10.68;8.35;;;;;;;20.67;96.80;98745.31;4961365;28;20026;-65
2023/09/09 04:55:27;;;;;;;9.10;8.07;;;;;;;20.61;97.51;98746.13;4974068;28;20027;-66
2023/09/09 04:57:53;;;;;;;11.68;8.57;;;;;;;20.70;96.88;98744.91;4980993;28;20045;-65
2023/09/09 05:00:20;;;;;;;12.38;8.70;;;;;;;20.64;97.44;98751.00;4963326;28;20026;-65
2023/09/09 05:02:46;;;;;;;9.60;8.15;;;;;;;20.35;98.15;98716.09;4976524;28;20045;-66
2023/09/09 05:05:16;;;;;;;11.25;8.55;;;;;;;20.62;97.35;98747.75;4974985;28;20670;-65
2023/09/09 05:07:41;;;;;;;11.77;8.32;;;;;;;20.51;97.78;98743.88;4978826;28;20092;-66
2023/09/09 05:10:09;;;;;;;10.93;8.88;;;;;;;20.40;98.63;98743.69;4981179;28;20109;-66
2023/09/09 05:12:38;;;;;;;10.27;8.32;;;;;;;20.59;97.89;98752.59;4979402;28;20031;-66
2023/09/09 05:15:10;;;;;;;12.63;8.82;;;;;;;20.47;98.67;98752.44;4976549;28;20026;-65
2023/09/09 05:17:38;;;;;;;10.35;8.60;;;;;;;20.60;97.75;98747.13;4990523;28;20038;-66
2023/09/09 05:20:04;;;;;;;11.23;8.93;;;;;;;20.43;98.02;98754.66;4974079;28;20077;-65
2023/09/09 05:22:29;;;;;;;9.73;8.73;;;;;;;20.46;98.33;98748.97;4980703;28;20029;-65
2023/09/09 05:24:55;;;;;;;11.02;8.55;;;;;;;20.39;98.73;98756.09;4974582;28;20027;-65
2023/09/09 05:27:22;;;;;;;11.55;8.57;;;;;;;20.33;98.07;98725.22;4958308;28;20042;-65
2023/09/09 05:29:47;;;;;;;10.57;8.88;;;;;;;20.59;98.04;98765.81;4979043;28;20029;-66
2023/09/09 05:32:13;;;;;;;10.90;8.82;;;;;;;20.53;98.03;98759.53;4963486;28;20596;-66
2023/09/09 05:34:39;;;;;;;10.32;8.50;;;;;;;20.47;97.96;98761.16;4988396;28;20027;-66
2023/09/09 05:37:04;;;;;;;13.40;8.85;;;;;;;20.29;98.32;98738.00;4973355;28;20482;-67
2023/09/09 05:39:35;;;;;;;9.82;8.27;;;;;;;20.34;99.13;98756.69;4974527;28;20031;-66
2023/09/09 05:42:00;;;;;;;10.77;7.97;;;;;;;20.29;98.52;98724.81;4988924;28;20133;-66
2023/09/09 05:44:26;;;;;;;9.95;8.50;;;;;;;20.43;99.28;98762.59;4990393;28;20392;-66
2023/09/09 05:46:53;;;;;;;10.60;9.02;;;;;;;20.54;98.22;98763.78;4995890;28;20030;-64
2023/09/09 05:49:19;;;;;;;11.10;8.48;;;;;;;20.63;97.93;98767.06;4978033;28;20439;-66
2023/09/09 05:51:46;;;;;;;11.43;9.15;;;;;;;20.53;98.07;98763.00;4974940;28;20050;-67
2023/09/09 05:54:12;;;;;;;11.07;8.80;;;;;;;20.47;98.50;98765.63;4967359;28;20049;-66
2023/09/09 05:56:37;;;;;;;10.82;8.25;;;;;;;20.41;99.08;98759.34;4969984;28;20031;-66
2023/09/09 05:59:07;;;;;;;12.25;8.32;;;;;;;20.42;97.91;98744.31;4992016;28;20026;-66
2023/09/09 06:01:32;;;;;;;;;;;;;;;20.62;97.33;98760.16;4961943;28;20116;-65
2023/09/09 06:03:57;;;;;;;10.05;8.27;;;;;;;20.65;96.84;98760.56;4975497;28;20378;-66
2023/09/09 06:06:23;;;;;;;9.65;8.25;;;;;;;20.49;97.62;98761.75;4975899;28;20034;-67
2023/09/09 06:08:48;;;;;;;10.98;8.27;;;;;;;20.40;97.08;98727.84;4959423;28;20031;-65
2023/09/09 06:11:14;;;;;;;13.00;8.45;;;;;;;20.67;96.63;98763.78;4971680;28;20868;-66
2023/09/09 06:13:39;;;;;;;9.65;8.23;;;;;;;20.70;96.44;98773.16;4971769;28;20084;-66
2023/09/09 06:16:08;;;;;;;10.13;8.73;;;;;;;20.69;96.35;98774.97;4969022;28;20046;-65
2023/09/09 06:18:33;;;;;;;10.75;8.55;;;;;;;20.64;96.81;98774.75;4971277;28;20054;-66
2023/09/09 06:21:01;;;;;;;11.80;9.00;;;;;;;20.67;96.89;98776.19;4970532;28;20032;-65
2023/09/09 06:23:29;;;;;;;9.63;7.85;;;;;;;20.78;96.15;98774.75;4977414;28;20034;-65
2023/09/09 06:25:56;;;;;;;11.57;7.97;;;;;;;20.68;95.89;98780.44;4978973;28;20046;-66
2023/09/09 06:28:22;;;;;;;11.48;8.70;;;;;;;20.82;95.61;98781.25;4974420;28;20038;-67
2023/09/09 06:30:49;;;;;;;10.30;8.68;;;;;;;20.83;95.46;98785.53;4977097;28;20372;-67
2023/09/09 06:33:15;;;;;;;10.82;8.32;;;;;;;20.66;96.40;98783.31;4971735;28;20073;-65
2023/09/09 06:35:53;;;;;;;11.20;8.65;;;;;;;20.68;96.16;98780.44;4976335;28;20117;-67
2023/09/09 06:38:19;;;;;;;12.60;8.50;;;;;;;20.84;95.28;98790.59;4972158;28;20477;-67
2023/09/09 06:40:49;;;;;;;10.82;8.73;;;;;;;20.84;95.52;98798.50;4975090;28;20672;-66
2023/09/09 06:43:20;;;;;;;12.52;8.45;;;;;;;20.93;95.27;98791.97;4962807;28;20100;-66
2023/09/09 06:45:46;;;;;;;10.38;8.35;;;;;;;21.09;94.44;98784.63;4975047;28;20030;-65
2023/09/09 06:48:16;;;;;;;10.55;8.00;;;;;;;21.15;93.66;98793.56;4963542;28;20030;-67
2023/09/09 06:50:44;;;;;;;9.70;8.32;;;;;;;21.00;94.23;98793.81;4975180;28;20050;-67
2023/09/09 06:53:10;;;;;;;10.73;8.68;;;;;;;20.59;95.40;98750.78;4981286;28;20121;-66
2023/09/09 06:55:38;;;;;;;10.60;8.57;;;;;;;20.75;95.65;98783.91;4960768;28;20623;-66
2023/09/09 06:58:05;;;;;;;11.77;9.10;;;;;;;20.73;95.90;98783.28;4972643;28;20023;-68
2023/09/09 07:00:31;;;;;;;12.88;8.60;;;;;;;20.87;95.12;98784.09;4965659;28;20038;-67
2023/09/09 07:02:56;;;;;;;11.65;8.18;;;;;;;20.80;95.38;98785.94;4957375;28;20042;-65
2023/09/09 07:05:26;;;;;;;11.25;8.38;;;;;;;20.85;94.75;98789.56;4957602;28;20658;-67
2023/09/09 07:07:52;;;;;;;10.32;8.20;;;;;;;20.97;94.23;98788.94;4975206;28;20068;-67
2023/09/09 07:10:17;;;;;;;9.73;8.40;;;;;;;21.05;93.27;98799.28;4956227;28;20042;-66
2023/09/09 07:12:45;;;;;;;10.63;7.63;;;;;;;21.15;93.04;98797.00;4973187;28;20038;-66
2023/09/09 07:15:11;;;;;;;12.98;8.30;;;;;;;21.11;93.34;98787.88;4951447;28;20069;-68
2023/09/09 07:17:38;;;;;;;13.77;8.68;;;;;;;21.24;92.79;98779.88;4974073;28;20190;-66
2023/09/09 07:20:08;;;;;;;10.60;8.50;;;;;;;21.33;92.89;98796.34;4959700;28;20030;-66
2023/09/09 07:22:35;;;;;;;11.23;7.78;;;;;;;21.48;92.21;98793.44;4957223;28;20041;-67
2023/09/09 07:25:01;;;;;;;11.90;8.73;;;;;;;21.53;92.72;98788.34;4958857;28;20583;-66
2023/09/09 07:27:26;;;;;;;10.02;8.10;;;;;;;21.59;90.83;98792.78;4958678;28;20026;-66
2023/09/09 07:29:54;;;;;;;10.73;8.40;;;;;;;21.22;90.44;98774.00;4960813;28;20040;-67
2023/09/09 07:32:19;;;;;;;11.00;8.02;;;;;;;21.50;90.51;98786.94;4974929;28;20038;-67
2023/09/09 07:34:44;;;;;;;9.35;7.60;;;;;;;21.60;89.91;98793.59;4975338;28;20042;-67
2023/09/09 07:37:10;;;;;;;10.95;8.20;;;;;;;21.56;88.88;98792.38;4976354;28;21394;-66
2023/09/09 07:39:57;;;;;;;10.55;8.10;;;;;;;21.61;87.62;98781.97;4976001;28;20038;-67
2023/09/09 07:42:24;;;;;;;10.32;8.18;;;;;;;21.68;89.94;98786.25;4971119;28;20030;-66
2023/09/09 07:44:53;;;;;;;11.40;8.43;;;;;;;21.77;88.72;98783.31;4954748;28;20031;-67
2023/09/09 07:47:22;;;;;;;11.88;7.82;;;;;;;21.65;87.57;98746.97;4973654;28;20500;-66
2023/09/09 07:49:50;;;;;;;11.13;7.83;;;;;;;21.91;88.78;98790.16;4956441;28;20026;-67
2023/09/09 07:52:15;;;;;;;10.30;7.95;;;;;;;21.80;89.35;98788.19;4973217;28;20392;-67
2023/09/09 07:54:43;;;;;;;10.80;8.10;;;;;;;21.84;88.79;98790.19;4972868;28;20041;-67
2023/09/09 07:57:13;;;;;;;12.40;8.05;;;;;;;21.78;86.62;98790.25;4987249;28;20034;-67
2023/09/09 07:59:39;;;;;;;13.43;8.27;;;;;;;21.57;85.86;98772.84;4971792;28;20069;-66
2023/09/09 08:02:05;;;;;;;10.48;8.07;;;;;;;21.67;86.41;98791.75;4969840;28;20446;-67
2023/09/09 08:04:32;;;;;;;11.10;8.32;;;;;;;21.65;88.18;98793.78;4971972;28;20715;-65
2023/09/09 08:06:57;;;;;;;10.15;8.30;;;;;;;21.77;88.61;98800.00;4986313;28;20132;-65
2023/09/09 08:09:23;;;;;;;11.73;8.15;;;;;;;21.87;87.21;98800.38;4989722;28;20026;-66
2023/09/09 08:11:48;;;;;;;11.50;8.52;;;;;;;21.87;84.48;98797.72;4971057;28;20501;-65
2023/09/09 08:14:14;;;;;;;10.13;8.00;;;;;;;21.89;84.05;98800.97;4974446;28;20031;-66
2023/09/09 08:16:43;;;;;;;9.63;7.95;;;;;;;21.84;84.89;98789.38;4956445;28;20042;-66
2023/09/09 08:19:09;;;;;;;10.63;8.38;;;;;;;21.99;84.26;98802.31;4969785;28;20041;-66
2023/09/09 08:21:34;;;;;;;10.88;8.38;;;;;;;21.67;85.81;98747.56;4973620;28;20100;-66
2023/09/09 08:24:02;;;;;;;9.98;8.20;;;;;;;21.88;87.03;98767.56;4971683;28;20034;-65
2023/09/09 08:26:28;;;;;;;10.73;8.48;;;;;;;22.11;86.25;98792.66;4971466;28;20062;-66
2023/09/09 08:28:54;;;;;;;9.13;7.93;;;;;;;22.14;85.44;98780.81;4970399;28;20050;-68
2023/09/09 08:31:22;;;;;;;14.13;8.10;;;;;;;22.18;85.74;98779.38;4970945;28;20034;-67
2023/09/09 08:33:48;;;;;;;10.27;8.43;;;;;;;22.04;86.69;98752.19;4971528;28;20042;-67
2023/09/09 08:36:16;;;;;;;10.48;8.25;;;;;;;22.23;87.49;98783.00;4970076;28;20041;-67
2023/09/09 08:38:41;;;;;;;10.27;8.32;;;;;;;22.26;86.91;98787.88;4973313;28;20962;-66
2023/09/09 08:41:16;;;;;;;11.40;8.77;;;;;;;22.11;86.12;98757.44;4974190;28;20026;-66
2023/09/09 08:44:05;;;;;;;10.25;8.15;;;;;;;22.32;87.31;98785.41;4955181;28;20093;-66
2023/09/09 08:46:31;;;;;;;;;;;;;;;22.25;86.58;98777.47;4953136;28;20691;-67
2023/09/09 08:49:00;;;;;;;12.00;8.63;;;;;;;22.33;86.53;98776.44;4953332;28;19972;-65
2023/09/09 08:51:31;;;;;;;13.48;8.60;;;;;;;22.30;85.77;98767.06;5006044;28;20824;-66
2023/09/09 08:53:57;;;;;;;11.50;8.02;;;;;;;22.33;83.28;98782.53;4969316;28;20023;-66
2023/09/09 08:56:23;;;;;;;11.57;8.27;;;;;;;22.32;83.22;98770.31;4973611;28;20038;-65
2023/09/09 08:58:53;;;;;;;10.73;8.15;;;;;;;22.50;82.16;98780.16;4972411;28;20507;-65
2023/09/09 09:01:20;;;;;;;10.98;7.95;;;;;;;22.52;82.01;98783.38;4970414;28;20112;-66
2023/09/09 09:03:46;;;;;;;11.43;8.10;;;;;;;22.58;80.64;98774.59;4954793;28;20034;-66
2023/09/09 09:06:11;;;;;;;11.60;8.38;;;;;;;22.68;80.35;98778.56;4968494;28;20042;-66
2023/09/09 09:08:36;;;;;;;9.13;7.47;;;;;;;22.76;79.91;98776.44;4972335;28;20100;-67
2023/09/09 09:11:03;;;;;;;12.93;8.20;;;;;;;22.87;80.10;98776.72;4970993;28;20034;-66
2023/09/09 09:13:32;;;;;;;10.80;8.32;;;;;;;22.96;79.69;98767.44;4990621;28;20048;-68
2023/09/09 09:16:01;;;;;;;14.15;8.57;;;;;;;22.85;79.88;98750.44;4969494;28;20121;-66
2023/09/09 09:18:29;;;;;;;9.63;8.50;;;;;;;23.04;79.33;98764.53;4968419;28;20109;-65
2023/09/09 09:21:15;;;;;;;10.60;8.15;;;;;;;23.26;78.60;98761.44;4969771;28;20057;-65
2023/09/09 09:23:44;;;;;;;11.55;8.07;;;;;;;23.36;77.95;98759.84;4969785;28;20117;-66
2023/09/09 09:26:26;;;;;;;11.15;8.20;;;;;;;23.38;75.66;98756.97;4985699;28;20948;-66
2023/09/09 09:28:51;;;;;;;11.18;8.13;;;;;;;23.49;76.02;98764.19;4975605;28;20026;-66
2023/09/09 09:31:23;;;;;;;10.60;8.27;;;;;;;23.61;74.33;98745.66;4971421;28;20889;-66
2023/09/09 09:33:52;;;;;;;14.70;8.52;;;;;;;23.63;73.47;98748.88;4970859;28;20319;-67
2023/09/09 09:36:21;;;;;;;10.40;8.73;;;;;;;23.52;72.41;98741.69;4971072;28;20088;-66
2023/09/09 09:38:53;;;;;;;10.13;8.23;;;;;;;23.65;73.31;98735.38;4968489;28;20041;-65
2023/09/09 09:41:19;;;;;;;9.27;7.82;;;;;;;23.94;71.50;98731.09;4972012;28;20041;-66
2023/09/09 09:43:49;;;;;;;11.13;7.90;;;;;;;24.04;70.69;98730.53;4971367;28;20034;-65
2023/09/09 09:46:21;;;;;;;9.95;8.05;;;;;;;24.18;69.90;98732.72;4971748;28;20049;-65
2023/09/09 09:48:48;;;;;;;10.90;7.53;;;;;;;24.01;69.44;98705.25;4967962;28;20462;-67
2023/09/09 09:51:13;;;;;;;11.32;8.00;;;;;;;24.02;70.62;98711.34;4955825;28;20048;-65
2023/09/09 09:53:48;;;;;;;10.65;8.20;;;;;;;24.26;71.65;98728.09;4969691;28;20034;-66
2023/09/09 09:56:19;;;;;;;10.48;7.85;;;;;;;24.32;69.44;98720.03;4971758;28;20033;-66
2023/09/09 09:58:47;;;;;;;12.80;8.27;;;;;;;24.35;69.39;98722.22;4952028;28;20101;-67
2023/09/09 10:01:12;;;;;;;10.02;8.20;;;;;;;24.54;69.58;98720.28;4970791;28;20018;-65
2023/09/09 10:03:43;;;;;;;10.45;7.85;;;;;;;24.50;69.31;98711.13;4955634;28;20176;-66
2023/09/09 10:06:12;;;;;;;12.85;8.15;;;;;;;24.45;71.51;98718.97;4968949;28;20065;-65
2023/09/09 10:08:41;;;;;;;9.77;8.38;;;;;;;24.56;70.85;98704.91;4971517;28;20877;-67
2023/09/09 10:11:10;;;;;;;11.20;8.18;;;;;;;24.57;68.95;98697.75;4966610;28;20030;-66
2023/09/09 10:14:04;;;;;;;11.48;7.93;;;;;;;24.62;70.78;98713.00;4971099;28;21027;-66
2023/09/09 10:16:33;;;;;;;13.02;8.95;;;;;;;24.75;70.99;98704.75;4970677;28;20116;-66
2023/09/09 10:18:59;;;;;;;12.07;8.07;;;;;;;24.90;71.15;98699.75;4969256;28;20038;-67
2023/09/09 10:21:26;;;;;;;12.77;8.07;;;;;;;24.89;71.49;98703.44;4968133;28;20027;-66
2023/09/09 10:23:54;;;;;;;12.13;7.88;;;;;;;24.94;68.92;98694.78;4962160;28;20038;-65
2023/09/09 10:26:24;;;;;;;9.98;8.15;;;;;;;25.05;68.89;98687.78;4970770;28;20033;-66
2023/09/09 10:28:49;;;;;;;11.00;8.90;;;;;;;25.32;70.09;98694.19;4968085;28;20128;-66
2023/09/09 10:31:16;;;;;;;11.80;8.52;;;;;;;25.25;69.90;98690.88;4971951;28;20046;-66
2023/09/09 10:33:48;;;;;;;9.82;7.90;;;;;;;25.49;68.88;98680.91;4967393;28;20029;-66
2023/09/09 10:36:15;;;;;;;10.13;8.45;;;;;;;25.80;68.08;98676.06;4971029;28;20042;-67
2023/09/09 10:38:40;;;;;;;10.30;8.13;;;;;;;25.81;67.27;98672.38;4967292;28;20490;-67
2023/09/09 10:41:06;;;;;;;10.55;8.20;;;;;;;25.77;67.20;98673.88;4970212;28;20042;-68
2023/09/09 10:43:32;;;;;;;10.25;8.52;;;;;;;25.85;66.00;98676.16;4950530;28;20018;-65
2023/09/09 10:45:57;;;;;;;10.93;8.23;;;;;;;25.96;65.45;98663.84;4968888;28;21075;-66
2023/09/09 10:48:24;;;;;;;10.07;8.50;;;;;;;26.25;60.88;98661.84;4969641;28;20610;-66
2023/09/09 10:50:51;;;;;;;10.35;8.25;;;;;;;26.43;59.97;98666.09;4951872;28;20058;-66
2023/09/09 10:53:27;;;;;;;11.30;8.70;;;;;;;26.42;59.93;98645.81;4969758;28;20081;-66
2023/09/09 10:55:58;;;;;;;12.68;8.02;;;;;;;26.31;61.12;98654.72;4967787;28;20060;-67
2023/09/09 10:58:43;;;;;;;11.35;8.38;;;;;;;26.03;61.73;98645.84;4969887;28;20033;-66
2023/09/09 11:01:11;;;;;;;9.65;8.10;;;;;;;26.32;60.71;98666.19;4968178;28;20576;-66
2023/09/09 11:03:39;;;;;;;11.32;8.57;;;;;;;26.21;60.92;98643.94;4971179;28;20532;-66
2023/09/09 11:06:18;;;;;;;10.18;7.53;;;;;;;26.24;60.66;98662.91;4966480;28;20038;-67
2023/09/09 11:08:46;;;;;;;9.45;8.05;;;;;;;26.32;61.06;98656.34;4984215;28;20031;-66
2023/09/09 11:11:21;;;;;;;10.48;8.05;;;;;;;26.43;60.54;98650.09;4968570;28;20139;-66
2023/09/09 11:13:53;;;;;;;10.82;7.78;;;;;;;26.41;59.70;98649.56;4967764;28;20391;-67
2023/09/09 11:16:40;;;;;;;11.02;8.52;;;;;;;26.47;59.73;98661.09;4970722;28;20061;-67
2023/09/09 11:19:08;;;;;;;10.40;8.23;;;;;;;26.51;59.36;98656.84;4967593;28;20045;-67
2023/09/09 11:21:47;;;;;;;8.48;7.25;;;;;;;26.55;58.51;98651.84;4952661;28;20185;-67
2023/09/09 11:24:13;;;;;;;11.18;7.43;;;;;;;26.53;58.41;98632.63;4969127;28;20034;-66
2023/09/09 11:26:44;;;;;;;9.68;7.75;;;;;;;26.75;57.54;98648.63;4965652;28;20034;-66
2023/09/09 11:29:09;;;;;;;11.15;7.57;;;;;;;26.79;58.31;98645.22;4968856;28;20038;-66